LFPG

Charles de Gaulle International Airport

Paris, France
METAR LFPG 161000Z 09007KT 050V110 0450 R27L/0450D R09R/0650N R26R/0500N R08L/0500D R26L/0700U R08R/0550U R27R/0450D R09L/0900U FG VV/// 06/06 Q1026 NOSIG
Observed Flight Rules
Nov-16 @ 10:00 UTC (11 minutes ago) Instrument Flight Rules
Wind Visibility Clouds Conditions
90° at 7 knots 451 meters
  • Vertical visibility
  • Fog
Temperatures Readings
Current 6°C / 43°F
Dewpoint 6°C / 43°F
Humidity 100%
Altimeter 30.3" Hg
Pressure 1026 hPa
Elevation 109
METAR LFPG 161000Z 09007KT 050V110 0450 R27L/0450D R09R/0650N R26R/0500N R08L/0500D R26L/0700U R08R/0550U R27R/0450D R09L/0900U FG VV/// 06/06 Q1026 NOSIG
Observed Flight Rules
Nov-16 @ 10:00 UTC
(11 minutes ago)
LIFR
Wind Visibility
90° at 7 knots 451 meters
Clouds
  • Vertical visibility
Conditions
  • Fog
Temperature Dewpoint
6°C / 43°F 6°C / 43°F
Humidity Altimeter Pressure
100% 30.3" Hg 1026 hPa